createdAt,value
2017-11-05T00:01:43.603Z,39.97
2017-11-05T00:04:11.688Z,43.77
2017-11-05T00:06:39.769Z,39.30
2017-11-05T00:09:07.848Z,39.23
2017-11-05T00:11:36.710Z,38.30
2017-11-05T00:14:04.797Z,42.37
2017-11-05T00:16:32.875Z,42.20
2017-11-05T00:19:01.735Z,44.33
2017-11-05T00:21:29.823Z,46.97
2017-11-05T00:23:57.917Z,46.03
2017-11-05T00:26:26.762Z,36.40
2017-11-05T00:28:54.854Z,42.20
2017-11-05T00:31:22.930Z,47.40
2017-11-05T00:33:51.779Z,43.83
2017-11-05T00:36:19.855Z,35.43
2017-11-05T00:38:47.951Z,38.50
2017-11-05T00:41:16.032Z,43.63
2017-11-05T00:43:44.892Z,44.27
2017-11-05T00:46:12.983Z,38.70
2017-11-05T00:48:41.082Z,41.30
2017-11-05T00:51:09.164Z,43.00
2017-11-05T00:53:37.258Z,41.40
2017-11-05T00:56:05.339Z,43.83
2017-11-05T00:58:33.416Z,48.63
2017-11-05T01:01:01.559Z,44.50
2017-11-05T01:03:29.651Z,47.33
2017-11-05T01:05:57.743Z,45.17
2017-11-05T01:08:25.836Z,45.83
2017-11-05T01:10:54.696Z,40.03
2017-11-05T01:13:22.792Z,39.37
2017-11-05T01:15:51.643Z,37.33
2017-11-05T01:18:19.735Z,41.67
2017-11-05T01:20:47.833Z,44.10
2017-11-05T01:23:15.915Z,40.90
2017-11-05T01:25:44.011Z,43.33
2017-11-05T01:28:12.087Z,37.43
2017-11-05T01:30:40.243Z,37.73
2017-11-05T01:33:08.331Z,36.80
2017-11-05T01:35:36.436Z,43.13
2017-11-05T01:38:04.503Z,37.60
2017-11-05T01:40:32.584Z,39.10
2017-11-05T01:43:01.435Z,34.97
2017-11-05T01:45:29.540Z,36.07
2017-11-05T01:47:58.383Z,33.47
2017-11-05T01:50:26.464Z,31.00
2017-11-05T01:52:54.540Z,37.03
2017-11-05T01:55:22.631Z,32.20
2017-11-05T01:57:51.486Z,34.53
2017-11-05T02:00:19.579Z,36.77
2017-11-05T02:02:47.658Z,34.70
2017-11-05T02:05:16.506Z,33.23
2017-11-05T02:07:44.583Z,32.90
2017-11-05T02:10:12.667Z,31.87
2017-11-05T02:12:40.753Z,34.00
2017-11-05T02:15:08.849Z,38.17
2017-11-05T02:17:36.931Z,35.80
2017-11-05T02:20:05.031Z,34.20
2017-11-05T02:22:33.112Z,29.40
2017-11-05T02:25:01.201Z,30.53
2017-11-05T02:27:29.299Z,35.73
2017-11-05T02:29:58.148Z,29.17
2017-11-05T02:32:26.236Z,34.93
2017-11-05T02:34:54.327Z,37.97
2017-11-05T02:37:23.188Z,35.10
2017-11-05T02:39:51.275Z,38.00
2017-11-05T02:42:20.120Z,34.37
2017-11-05T02:44:48.226Z,30.70
2017-11-05T02:47:16.324Z,32.20
2017-11-05T02:49:44.402Z,32.20
2017-11-05T02:52:12.501Z,31.90
2017-11-05T02:54:40.587Z,33.90
2017-11-05T02:57:08.667Z,34.23
2017-11-05T02:59:36.753Z,35.27
2017-11-05T03:02:05.603Z,32.33
2017-11-05T03:04:33.693Z,34.87
2017-11-05T03:07:01.788Z,31.47
2017-11-05T03:09:30.649Z,33.33
2017-11-05T03:11:58.730Z,35.70
2017-11-05T03:14:26.817Z,32.10
2017-11-05T03:16:55.663Z,34.33
2017-11-05T03:19:23.748Z,35.77
2017-11-05T03:21:51.831Z,34.80
2017-11-05T03:24:19.928Z,32.40
2017-11-05T03:26:48.775Z,31.60
2017-11-05T03:29:16.878Z,30.80
2017-11-05T03:31:45.719Z,31.40
2017-11-05T03:34:13.801Z,34.17
2017-11-05T03:36:41.900Z,31.13
2017-11-05T03:39:10.751Z,33.63
2017-11-05T03:41:38.835Z,34.50
2017-11-05T03:44:06.941Z,33.07
2017-11-05T03:46:35.799Z,33.27
2017-11-05T03:49:03.880Z,32.07
2017-11-05T03:51:31.977Z,31.20
2017-11-05T03:54:00.052Z,29.07
2017-11-05T03:56:28.158Z,27.67
2017-11-05T03:58:56.255Z,31.03
2017-11-05T04:01:24.344Z,25.93
2017-11-05T04:03:53.189Z,29.03
2017-11-05T04:06:21.287Z,27.53
2017-11-05T04:08:49.367Z,27.80
2017-11-05T04:11:17.471Z,26.80
2017-11-05T04:13:45.552Z,26.80
2017-11-05T04:16:13.638Z,25.43
2017-11-05T04:18:41.717Z,23.47
2017-11-05T04:21:09.818Z,23.87
2017-11-05T04:23:37.909Z,30.83
2017-11-05T04:26:05.990Z,26.57
2017-11-05T04:28:34.075Z,32.80
2017-11-05T04:31:02.164Z,24.90
2017-11-05T04:33:30.248Z,28.60
2017-11-05T04:35:58.330Z,26.80
2017-11-05T04:38:26.421Z,30.43
2017-11-05T04:40:55.339Z,26.27
2017-11-05T04:43:23.417Z,29.80
2017-11-05T04:45:51.512Z,27.47
2017-11-05T04:48:19.588Z,26.20
2017-11-05T04:50:47.674Z,27.90
2017-11-05T04:53:15.745Z,23.83
2017-11-05T04:55:43.836Z,29.93
2017-11-05T04:58:12.680Z,24.60
2017-11-05T05:00:40.775Z,31.40
2017-11-05T05:03:08.852Z,27.03
2017-11-05T05:05:37.704Z,32.60
2017-11-05T05:08:05.789Z,28.77
2017-11-05T05:10:33.879Z,28.17
2017-11-05T05:13:02.735Z,36.90
2017-11-05T05:15:30.823Z,30.80
2017-11-05T05:17:58.899Z,25.93
2017-11-05T05:20:26.991Z,25.80
2017-11-05T05:22:55.834Z,32.73
2017-11-05T05:25:23.925Z,24.77
2017-11-05T05:27:52.012Z,29.57
2017-11-05T05:30:20.871Z,29.20
2017-11-05T05:32:48.963Z,32.77
2017-11-05T05:35:17.822Z,36.00
2017-11-05T05:37:45.899Z,32.93
2017-11-05T05:40:14.000Z,41.50
2017-11-05T05:42:42.072Z,36.47
2017-11-05T05:45:10.920Z,35.13
2017-11-05T05:47:38.996Z,38.10
2017-11-05T05:50:07.080Z,35.60
2017-11-05T05:52:35.161Z,36.13
2017-11-05T05:55:03.472Z,30.67
2017-11-05T05:57:31.561Z,28.80
2017-11-05T05:59:59.727Z,27.80
2017-11-05T06:02:27.819Z,35.00
2017-11-05T06:04:55.913Z,30.27
2017-11-05T06:07:24.003Z,37.33
2017-11-05T06:09:52.855Z,32.23
2017-11-05T06:12:20.939Z,28.63
2017-11-05T06:14:49.016Z,27.10
2017-11-05T06:17:17.107Z,26.20
2017-11-05T06:19:45.959Z,25.13
2017-11-05T06:22:14.043Z,26.97
2017-11-05T06:24:42.132Z,29.43
2017-11-05T06:27:11.000Z,29.33
2017-11-05T06:29:39.055Z,30.53
2017-11-05T06:32:07.134Z,29.20
2017-11-05T06:34:35.222Z,29.70
2017-11-05T06:37:03.309Z,29.10
2017-11-05T06:39:32.160Z,29.90
2017-11-05T06:42:00.261Z,30.10
2017-11-05T06:44:29.115Z,28.57
2017-11-05T06:46:57.204Z,28.87
2017-11-05T06:49:25.496Z,30.03
2017-11-05T06:51:54.338Z,26.93
2017-11-05T06:54:22.435Z,25.70
2017-11-05T06:56:50.540Z,23.37
2017-11-05T06:59:18.723Z,21.20
2017-11-05T07:01:46.820Z,24.57
2017-11-05T07:04:14.904Z,25.40
2017-11-05T07:06:43.001Z,27.33
2017-11-05T07:09:11.848Z,24.27
2017-11-05T07:11:39.941Z,22.00
2017-11-05T07:14:08.019Z,22.10
2017-11-05T07:16:36.104Z,20.97
2017-11-05T07:19:04.960Z,24.03
2017-11-05T07:21:33.044Z,15.33
2017-11-05T07:24:01.135Z,17.53
2017-11-05T07:26:30.014Z,17.53
2017-11-05T07:28:58.086Z,20.93
2017-11-05T07:31:26.942Z,19.70
2017-11-05T07:33:55.244Z,20.53
2017-11-05T07:36:23.318Z,19.20
2017-11-05T07:38:52.167Z,18.60
2017-11-05T07:41:20.271Z,20.10
2017-11-05T07:43:48.352Z,17.70
2017-11-05T07:46:16.430Z,17.10
2017-11-05T07:48:44.514Z,16.10
2017-11-05T07:51:13.599Z,18.37
2017-11-05T07:53:41.691Z,17.97
2017-11-05T07:56:09.795Z,15.83
2017-11-05T07:58:37.982Z,17.43
2017-11-05T08:01:06.071Z,18.33
2017-11-05T08:03:34.916Z,19.50
2017-11-05T08:06:03.007Z,18.70
2017-11-05T08:08:31.082Z,19.20
2017-11-05T08:10:59.183Z,19.03
2017-11-05T08:13:28.021Z,21.87
2017-11-05T08:15:56.104Z,19.70
2017-11-05T08:18:24.415Z,19.43
2017-11-05T08:20:53.271Z,20.53
2017-11-05T08:23:21.367Z,19.10
2017-11-05T08:25:50.218Z,18.33
2017-11-05T08:28:18.296Z,18.13
2017-11-05T08:30:46.396Z,18.83
2017-11-05T08:33:15.244Z,17.73
2017-11-05T08:35:43.351Z,17.10
2017-11-05T08:38:11.424Z,19.13
2017-11-05T08:40:40.308Z,20.63
2017-11-05T08:43:08.379Z,20.57
2017-11-05T08:45:37.236Z,20.30
2017-11-05T08:48:05.307Z,20.63
2017-11-05T08:50:33.391Z,19.03
2017-11-05T08:53:01.487Z,20.33
2017-11-05T08:55:30.553Z,19.47
2017-11-05T08:57:58.634Z,19.57
2017-11-05T09:00:26.767Z,20.43
2017-11-05T09:02:54.850Z,19.80
2017-11-05T09:05:22.929Z,21.70
2017-11-05T09:07:51.023Z,18.83
2017-11-05T09:10:19.866Z,22.70
2017-11-05T09:12:47.960Z,22.43
2017-11-05T09:15:16.036Z,22.50
2017-11-05T09:17:44.123Z,21.17
2017-11-05T09:20:12.975Z,23.80
2017-11-05T09:22:41.290Z,20.30
2017-11-05T09:25:09.363Z,21.40
2017-11-05T09:27:38.215Z,23.13
2017-11-05T09:30:06.294Z,23.07
2017-11-05T09:32:34.391Z,23.37
2017-11-05T09:35:03.233Z,21.60
2017-11-05T09:37:31.320Z,21.63
2017-11-05T09:39:59.399Z,22.40
2017-11-05T09:42:27.496Z,20.97
2017-11-05T09:44:56.337Z,21.83
2017-11-05T09:47:24.442Z,23.47
2017-11-05T09:49:52.520Z,21.30
2017-11-05T09:52:21.379Z,19.27
2017-11-05T09:54:49.475Z,23.90
2017-11-05T09:57:18.323Z,24.27
2017-11-05T09:59:46.467Z,20.63
2017-11-05T10:02:14.639Z,22.80
2017-11-05T10:04:42.718Z,19.73
2017-11-05T10:07:10.814Z,22.40
2017-11-05T10:09:38.922Z,21.57
2017-11-05T10:12:07.799Z,20.80
2017-11-05T10:14:35.883Z,22.17
2017-11-05T10:17:04.776Z,18.80
2017-11-05T10:19:33.619Z,21.17
2017-11-05T10:22:01.736Z,18.87
2017-11-05T10:24:30.605Z,18.83
2017-11-05T10:26:58.714Z,19.80
2017-11-05T10:29:26.843Z,23.20
2017-11-05T10:31:54.948Z,27.20
2017-11-05T10:34:23.033Z,18.93
2017-11-05T10:36:51.128Z,18.33
2017-11-05T10:39:19.231Z,16.47
2017-11-05T10:41:47.340Z,16.40
2017-11-05T10:44:15.419Z,18.50
2017-11-05T10:46:43.514Z,15.90
2017-11-05T10:49:11.649Z,16.70
2017-11-05T10:51:40.487Z,16.73
2017-11-05T10:54:08.582Z,16.43
2017-11-05T10:56:37.427Z,19.23
2017-11-05T10:59:05.512Z,17.00
2017-11-05T11:01:33.611Z,18.10
2017-11-05T11:04:02.471Z,19.07
2017-11-05T11:06:30.566Z,20.40
2017-11-05T11:08:59.425Z,19.57
2017-11-05T11:11:27.520Z,18.63
2017-11-05T11:13:55.607Z,19.83
2017-11-05T11:16:24.463Z,17.23
2017-11-05T11:18:52.553Z,20.33
2017-11-05T11:21:20.663Z,18.73
2017-11-05T11:23:48.762Z,19.50
2017-11-05T11:26:16.849Z,20.10
2017-11-05T11:28:44.948Z,18.67
2017-11-05T11:31:13.799Z,19.03
2017-11-05T11:33:41.900Z,20.53
2017-11-05T11:36:10.760Z,22.30
2017-11-05T11:38:38.847Z,20.87
2017-11-05T11:41:06.947Z,22.23
2017-11-05T11:43:35.048Z,23.27
2017-11-05T11:46:03.124Z,18.90
2017-11-05T11:48:31.224Z,20.73
2017-11-05T11:50:59.313Z,20.80
2017-11-05T11:53:28.163Z,22.17
2017-11-05T11:55:56.239Z,22.70
2017-11-05T11:58:24.327Z,21.60
2017-11-05T12:00:52.431Z,20.87
2017-11-05T12:03:21.282Z,22.60
2017-11-05T12:05:49.364Z,20.67
2017-11-05T12:08:17.668Z,20.53
2017-11-05T12:10:45.744Z,23.73
2017-11-05T12:13:13.837Z,22.10
2017-11-05T12:15:41.923Z,21.07
2017-11-05T12:18:10.019Z,19.10
2017-11-05T12:20:38.111Z,21.73
2017-11-05T12:23:06.969Z,21.17
2017-11-05T12:25:35.053Z,21.93
2017-11-05T12:28:03.126Z,21.37
2017-11-05T12:30:31.982Z,21.53
2017-11-05T12:33:00.119Z,25.00
2017-11-05T12:35:28.212Z,27.07
2017-11-05T12:37:56.300Z,22.20
2017-11-05T12:40:24.431Z,25.27
2017-11-05T12:42:53.269Z,18.93
2017-11-05T12:45:21.428Z,19.23
2017-11-05T12:47:49.509Z,11.20
2017-11-05T12:50:17.579Z,3.87
2017-11-05T12:52:45.656Z,3.73
2017-11-05T12:55:13.727Z,4.10
2017-11-05T12:57:41.879Z,2.43
2017-11-05T13:00:09.930Z,1.70
2017-11-05T13:02:38.071Z,2.27
2017-11-05T13:05:06.895Z,1.60
2017-11-05T13:07:34.980Z,2.03
2017-11-05T13:10:03.053Z,1.73
2017-11-05T13:12:31.154Z,1.90
2017-11-05T13:14:59.983Z,1.43
2017-11-05T13:17:28.062Z,2.37
2017-11-05T13:19:56.204Z,1.57
2017-11-05T13:22:25.047Z,1.77
2017-11-05T13:24:53.104Z,1.60
2017-11-05T13:27:21.183Z,2.37
2017-11-05T13:29:49.323Z,2.03
2017-11-05T13:32:17.385Z,2.00
2017-11-05T13:34:45.470Z,2.53
2017-11-05T13:37:13.562Z,2.50
2017-11-05T13:39:41.632Z,1.60
2017-11-05T13:42:09.820Z,1.77
2017-11-05T13:44:37.898Z,2.20
2017-11-05T13:47:06.747Z,2.30
2017-11-05T13:49:34.819Z,1.70
2017-11-05T13:52:02.899Z,2.37
2017-11-05T13:54:30.988Z,2.53
2017-11-05T13:56:59.060Z,2.27
2017-11-05T13:59:27.166Z,3.00
2017-11-05T14:01:55.240Z,3.70
2017-11-05T14:04:23.321Z,3.40
2017-11-05T14:06:51.445Z,3.13
2017-11-05T14:09:19.511Z,3.90
2017-11-05T14:11:47.583Z,2.13
2017-11-05T14:14:15.663Z,2.00
2017-11-05T14:16:44.505Z,2.40
2017-11-05T14:19:12.591Z,2.57
2017-11-05T14:21:40.659Z,2.60
2017-11-05T14:24:08.752Z,2.03
2017-11-05T14:26:36.833Z,3.43
2017-11-05T14:29:05.676Z,3.40
2017-11-05T14:31:34.516Z,2.80
2017-11-05T14:34:03.368Z,3.03
2017-11-05T14:36:31.448Z,3.47
2017-11-05T14:38:59.533Z,3.07
2017-11-05T14:41:27.599Z,3.77
2017-11-05T14:43:55.737Z,3.60
2017-11-05T14:46:23.780Z,3.67
2017-11-05T14:48:51.872Z,4.00
2017-11-05T14:51:19.946Z,3.60
2017-11-05T14:53:48.042Z,5.07
2017-11-05T14:56:16.114Z,3.10
2017-11-05T14:58:44.247Z,3.30
2017-11-05T15:01:12.364Z,4.17
2017-11-05T15:03:40.484Z,3.97
2017-11-05T15:06:08.532Z,3.87
2017-11-05T15:08:36.666Z,4.40
2017-11-05T15:11:04.725Z,3.70
2017-11-05T15:13:32.827Z,3.93
2017-11-05T15:16:01.763Z,2.87
2017-11-05T15:18:29.879Z,3.93
2017-11-05T15:20:57.986Z,2.90
2017-11-05T15:23:26.047Z,4.10
2017-11-05T15:25:54.129Z,3.80
2017-11-05T15:28:22.219Z,3.97
2017-11-05T15:30:50.369Z,3.10
2017-11-05T15:33:18.462Z,3.33
2017-11-05T15:35:46.640Z,4.03
2017-11-05T15:38:14.743Z,4.43
2017-11-05T15:40:42.846Z,41.10
2017-11-05T15:43:10.971Z,5.43
2017-11-05T15:45:39.075Z,5.73
2017-11-05T15:48:07.914Z,5.20
2017-11-05T15:50:36.101Z,7.30
2017-11-05T15:53:04.231Z,5.33
2017-11-05T15:55:32.284Z,5.30
2017-11-05T15:58:00.374Z,6.70
2017-11-05T16:00:28.476Z,6.20
2017-11-05T16:02:56.565Z,6.60
2017-11-05T16:05:24.679Z,6.30
2017-11-05T16:07:52.807Z,7.43
2017-11-05T16:10:20.897Z,8.23
2017-11-05T16:12:49.783Z,7.37
2017-11-05T16:15:17.908Z,7.50
2017-11-05T16:17:45.974Z,11.00
2017-11-05T16:20:14.133Z,7.90
2017-11-05T16:22:42.261Z,11.70
2017-11-05T16:25:10.327Z,10.70
2017-11-05T16:27:38.407Z,7.87
2017-11-05T16:30:07.404Z,9.57
2017-11-05T16:32:35.594Z,9.47
2017-11-05T16:35:04.439Z,9.60
2017-11-05T16:37:32.503Z,8.20
2017-11-05T16:40:00.638Z,8.50
2017-11-05T16:42:28.754Z,8.00
2017-11-05T16:44:56.832Z,8.13
2017-11-05T16:47:24.958Z,8.50
2017-11-05T16:49:53.127Z,7.83
2017-11-05T16:52:21.270Z,9.77
2017-11-05T16:54:50.094Z,8.93
2017-11-05T16:57:18.168Z,10.33
2017-11-05T16:59:46.254Z,9.70
2017-11-05T17:02:14.342Z,10.17
2017-11-05T17:04:42.463Z,9.37
2017-11-05T17:07:10.528Z,9.33
2017-11-05T17:09:38.757Z,10.23
2017-11-05T17:12:06.820Z,10.37
2017-11-05T17:14:34.912Z,11.90
2017-11-05T17:17:03.802Z,14.10
2017-11-05T17:19:32.652Z,14.17
2017-11-05T17:22:00.759Z,12.93
2017-11-05T17:24:29.676Z,14.87
2017-11-05T17:26:57.761Z,13.37
2017-11-05T17:29:25.840Z,10.93
2017-11-05T17:31:53.920Z,12.57
2017-11-05T17:34:22.007Z,10.23
2017-11-05T17:36:50.096Z,12.83
2017-11-05T17:39:19.039Z,11.90
2017-11-05T17:41:47.127Z,11.20
2017-11-05T17:44:15.311Z,13.00
2017-11-05T17:46:43.820Z,12.07
2017-11-05T17:49:12.156Z,12.57
2017-11-05T17:51:40.262Z,12.27
2017-11-05T17:54:08.345Z,11.07
2017-11-05T17:56:36.430Z,11.97
2017-11-05T17:59:04.535Z,12.33
2017-11-05T18:01:32.630Z,12.37
2017-11-05T18:04:00.762Z,12.27
2017-11-05T18:06:28.895Z,10.90
2017-11-05T18:08:58.363Z,9.93
2017-11-05T18:11:26.459Z,10.20
2017-11-05T18:13:55.412Z,9.83
2017-11-05T18:16:23.852Z,12.23
2017-11-05T18:18:53.198Z,10.03
2017-11-05T18:21:21.401Z,14.70
2017-11-05T18:23:50.870Z,11.70
2017-11-05T18:29:15.642Z,10.73
2017-11-05T18:31:43.718Z,12.10
2017-11-05T18:34:12.010Z,11.30
2017-11-05T18:36:40.234Z,13.17
2017-11-05T18:39:08.364Z,12.57
2017-11-05T18:41:36.456Z,12.87
2017-11-05T18:44:04.608Z,11.03
2017-11-05T18:46:32.688Z,12.53
2017-11-05T18:49:00.829Z,10.47
2017-11-05T18:51:28.893Z,13.07
2017-11-05T18:53:57.035Z,12.67
2017-11-05T18:56:25.261Z,18.93
2017-11-05T18:58:53.358Z,11.07
2017-11-05T19:01:21.440Z,13.30
2017-11-05T19:03:50.575Z,13.10
2017-11-05T19:06:18.667Z,11.93
2017-11-05T19:08:46.756Z,13.37
2017-11-05T19:11:15.033Z,55.13
2017-11-05T19:13:43.224Z,12.23
2017-11-05T19:16:11.352Z,11.33
2017-11-05T19:18:39.476Z,13.00
2017-11-05T19:21:08.496Z,12.07
2017-11-05T19:23:36.589Z,11.87
2017-11-05T19:26:04.724Z,11.97
2017-11-05T19:28:33.561Z,11.10
2017-11-05T19:31:01.699Z,12.33
2017-11-05T19:33:29.762Z,15.80
2017-11-05T19:35:57.959Z,15.30
2017-11-05T19:38:26.029Z,15.57
2017-11-05T19:40:54.184Z,17.13
2017-11-05T19:43:22.317Z,15.97
2017-11-05T19:45:50.419Z,18.93
2017-11-05T19:48:18.480Z,17.40
2017-11-05T19:50:46.569Z,16.50
2017-11-05T19:53:14.724Z,17.33
2017-11-05T19:55:43.632Z,13.20
2017-11-05T19:58:12.072Z,16.90
2017-11-05T20:00:40.433Z,16.27
2017-11-05T20:03:08.865Z,21.60
2017-11-05T20:05:37.243Z,18.00
2017-11-05T20:08:05.540Z,24.17
2017-11-05T20:10:34.899Z,21.40
2017-11-05T20:13:03.316Z,15.37
2017-11-05T20:15:31.765Z,19.40
2017-11-05T20:18:00.274Z,20.20
2017-11-05T20:20:28.616Z,20.43
2017-11-05T20:22:56.968Z,18.50
2017-11-05T20:25:25.298Z,21.87
2017-11-05T20:27:53.419Z,19.77
2017-11-05T20:30:22.675Z,20.60
2017-11-05T20:32:51.088Z,22.17
2017-11-05T20:35:19.388Z,18.77
2017-11-05T20:37:47.692Z,17.30
2017-11-05T20:40:16.028Z,18.70
2017-11-05T20:42:44.428Z,22.80
2017-11-05T20:45:12.661Z,27.77
2017-11-05T20:47:41.938Z,29.87
2017-11-05T20:50:10.310Z,29.53
2017-11-05T20:52:38.680Z,29.20
2017-11-05T20:55:07.083Z,25.57
2017-11-05T20:57:35.480Z,25.60
2017-11-05T21:00:03.952Z,21.90
2017-11-05T21:02:33.251Z,25.77
2017-11-05T21:05:01.593Z,25.33
2017-11-05T21:07:29.891Z,24.73
2017-11-05T21:09:58.181Z,27.10
2017-11-05T21:12:27.228Z,25.40
2017-11-05T21:14:55.428Z,30.73
2017-11-05T21:17:23.933Z,28.70
2017-11-05T21:19:52.187Z,29.17
2017-11-05T21:22:20.262Z,24.20
2017-11-05T21:24:48.536Z,26.97
2017-11-05T21:27:16.678Z,25.60
2017-11-05T21:29:44.791Z,23.93
2017-11-05T21:32:12.919Z,32.00
2017-11-05T21:34:41.031Z,26.13
2017-11-05T21:37:09.187Z,29.43
2017-11-05T21:39:37.247Z,25.13
2017-11-05T21:42:05.391Z,28.37
2017-11-05T21:44:33.512Z,28.60
2017-11-05T21:47:01.607Z,32.70
2017-11-05T21:49:30.515Z,27.83
2017-11-05T21:51:58.644Z,28.33
2017-11-05T21:54:26.714Z,26.33
2017-11-05T21:56:55.606Z,28.40
2017-11-05T21:59:23.670Z,35.03
2017-11-05T22:01:52.583Z,31.23
2017-11-05T22:04:21.468Z,29.83
2017-11-05T22:06:50.478Z,34.83
2017-11-05T22:09:18.556Z,31.00
2017-11-05T22:11:46.691Z,26.67
2017-11-05T22:14:14.782Z,28.43
2017-11-05T22:16:43.658Z,24.43
2017-11-05T22:19:11.711Z,29.13
2017-11-05T22:21:39.799Z,24.07
2017-11-05T22:24:08.696Z,28.13
2017-11-05T22:26:37.648Z,22.60
2017-11-05T22:29:07.251Z,29.50
2017-11-05T22:31:35.390Z,29.07
2017-11-05T22:34:03.476Z,28.70
2017-11-05T22:36:31.777Z,33.43
2017-11-05T22:38:59.870Z,29.17
2017-11-05T22:41:28.715Z,22.17
2017-11-05T22:43:57.658Z,25.57
2017-11-05T22:46:25.744Z,26.13
2017-11-05T22:48:53.855Z,24.13
2017-11-05T22:51:21.974Z,24.20
2017-11-05T22:53:50.060Z,25.10
2017-11-05T22:56:18.151Z,25.37
2017-11-05T22:58:46.241Z,25.20
2017-11-05T23:01:14.345Z,24.50
2017-11-05T23:03:43.200Z,24.43
2017-11-05T23:06:11.272Z,28.90
2017-11-05T23:08:39.375Z,21.73
2017-11-05T23:11:08.219Z,24.00
2017-11-05T23:13:36.315Z,25.30
2017-11-05T23:16:05.177Z,21.67
2017-11-05T23:18:33.265Z,23.67
2017-11-05T23:21:01.348Z,20.40
2017-11-05T23:23:30.196Z,26.23
2017-11-05T23:25:58.283Z,21.17
2017-11-05T23:28:26.367Z,22.33
2017-11-05T23:30:54.462Z,22.63
2017-11-05T23:33:22.563Z,29.53
2017-11-05T23:35:50.649Z,26.03
2017-11-05T23:38:18.740Z,22.17
2017-11-05T23:40:46.930Z,19.60
2017-11-05T23:43:15.162Z,23.27
2017-11-05T23:45:43.450Z,23.87
2017-11-05T23:48:12.047Z,24.90
2017-11-05T23:50:41.172Z,21.00
2017-11-05T23:53:09.461Z,21.37
2017-11-05T23:55:38.280Z,22.83
2017-11-05T23:58:06.398Z,18.73
